sensor_id;sensor_type;location;lat;lon;timestamp;P1;durP1;ratioP1;P2;durP2;ratioP2
16577;SDS011;8401;52.528;13.340;2022-11-20T00:01:40;14.57;;;9.17;;
16577;SDS011;8401;52.528;13.340;2022-11-20T00:04:06;14.40;;;8.60;;
16577;SDS011;8401;52.528;13.340;2022-11-20T00:06:33;14.93;;;8.80;;
16577;SDS011;8401;52.528;13.340;2022-11-20T00:08:59;13.07;;;8.07;;
16577;SDS011;8401;52.528;13.340;2022-11-20T00:11:26;13.50;;;8.37;;
16577;SDS011;8401;52.528;13.340;2022-11-20T00:13:56;12.33;;;7.20;;
16577;SDS011;8401;52.528;13.340;2022-11-20T00:16:24;14.90;;;8.60;;
16577;SDS011;8401;52.528;13.340;2022-11-20T00:18:51;14.17;;;8.53;;
16577;SDS011;8401;52.528;13.340;2022-11-20T00:21:22;13.83;;;8.20;;
16577;SDS011;8401;52.528;13.340;2022-11-20T00:23:49;12.57;;;7.83;;
16577;SDS011;8401;52.528;13.340;2022-11-20T00:26:17;12.90;;;8.03;;
16577;SDS011;8401;52.528;13.340;2022-11-20T00:28:48;12.93;;;8.10;;
16577;SDS011;8401;52.528;13.340;2022-11-20T00:31:15;16.60;;;9.57;;
16577;SDS011;8401;52.528;13.340;2022-11-20T00:33:42;13.00;;;8.83;;
16577;SDS011;8401;52.528;13.340;2022-11-20T00:36:15;16.80;;;9.13;;
16577;SDS011;8401;52.528;13.340;2022-11-20T00:38:43;13.77;;;8.17;;
16577;SDS011;8401;52.528;13.340;2022-11-20T00:41:10;15.63;;;9.00;;
16577;SDS011;8401;52.528;13.340;2022-11-20T00:43:38;13.70;;;7.87;;
16577;SDS011;8401;52.528;13.340;2022-11-20T00:46:05;12.57;;;7.97;;
16577;SDS011;8401;52.528;13.340;2022-11-20T00:48:33;11.23;;;8.03;;
16577;SDS011;8401;52.528;13.340;2022-11-20T00:50:59;12.77;;;7.70;;
16577;SDS011;8401;52.528;13.340;2022-11-20T00:53:25;12.30;;;7.93;;
16577;SDS011;8401;52.528;13.340;2022-11-20T00:58:34;11.53;;;8.17;;
16577;SDS011;8401;52.528;13.340;2022-11-20T01:01:04;11.77;;;7.57;;
16577;SDS011;8401;52.528;13.340;2022-11-20T01:03:35;12.23;;;8.23;;
16577;SDS011;8401;52.528;13.340;2022-11-20T01:06:07;13.00;;;8.47;;
16577;SDS011;8401;52.528;13.340;2022-11-20T01:08:40;13.77;;;8.23;;
16577;SDS011;8401;52.528;13.340;2022-11-20T01:11:10;12.57;;;7.73;;
16577;SDS011;8401;52.528;13.340;2022-11-20T01:13:37;15.90;;;8.77;;
16577;SDS011;8401;52.528;13.340;2022-11-20T01:16:10;11.97;;;8.17;;
16577;SDS011;8401;52.528;13.340;2022-11-20T01:18:38;13.47;;;8.40;;
16577;SDS011;8401;52.528;13.340;2022-11-20T01:21:09;13.17;;;7.93;;
16577;SDS011;8401;52.528;13.340;2022-11-20T01:23:38;12.43;;;7.53;;
16577;SDS011;8401;52.528;13.340;2022-11-20T01:26:09;14.63;;;8.93;;
16577;SDS011;8401;52.528;13.340;2022-11-20T01:28:36;15.43;;;8.57;;
16577;SDS011;8401;52.528;13.340;2022-11-20T01:33:40;12.77;;;8.67;;
16577;SDS011;8401;52.528;13.340;2022-11-20T01:36:06;14.73;;;8.87;;
16577;SDS011;8401;52.528;13.340;2022-11-20T01:38:33;13.80;;;8.87;;
16577;SDS011;8401;52.528;13.340;2022-11-20T01:40:58;13.10;;;9.07;;
16577;SDS011;8401;52.528;13.340;2022-11-20T01:43:24;15.50;;;8.53;;
16577;SDS011;8401;52.528;13.340;2022-11-20T01:48:29;13.43;;;8.40;;
16577;SDS011;8401;52.528;13.340;2022-11-20T01:50:59;13.67;;;8.90;;
16577;SDS011;8401;52.528;13.340;2022-11-20T01:53:28;13.50;;;8.57;;
16577;SDS011;8401;52.528;13.340;2022-11-20T01:55:57;14.13;;;8.77;;
16577;SDS011;8401;52.528;13.340;2022-11-20T01:58:28;13.37;;;8.57;;
16577;SDS011;8401;52.528;13.340;2022-11-20T02:00:58;12.63;;;8.40;;
16577;SDS011;8401;52.528;13.340;2022-11-20T02:03:24;14.07;;;8.40;;
16577;SDS011;8401;52.528;13.340;2022-11-20T02:05:51;14.97;;;8.93;;
16577;SDS011;8401;52.528;13.340;2022-11-20T02:08:19;13.03;;;8.40;;
16577;SDS011;8401;52.528;13.340;2022-11-20T02:10:46;14.73;;;9.10;;
16577;SDS011;8401;52.528;13.340;2022-11-20T02:13:12;17.13;;;9.13;;
16577;SDS011;8401;52.528;13.340;2022-11-20T02:15:56;15.83;;;8.53;;
16577;SDS011;8401;52.528;13.340;2022-11-20T02:18:25;13.63;;;9.20;;
16577;SDS011;8401;52.528;13.340;2022-11-20T02:20:56;12.90;;;7.90;;
16577;SDS011;8401;52.528;13.340;2022-11-20T02:23:32;15.80;;;9.03;;
16577;SDS011;8401;52.528;13.340;2022-11-20T02:26:22;17.23;;;9.97;;
16577;SDS011;8401;52.528;13.340;2022-11-20T02:28:49;12.87;;;8.43;;
16577;SDS011;8401;52.528;13.340;2022-11-20T02:31:15;14.17;;;8.77;;
16577;SDS011;8401;52.528;13.340;2022-11-20T02:33:41;15.17;;;9.30;;
16577;SDS011;8401;52.528;13.340;2022-11-20T02:36:07;13.90;;;8.77;;
16577;SDS011;8401;52.528;13.340;2022-11-20T02:38:36;14.80;;;10.17;;
16577;SDS011;8401;52.528;13.340;2022-11-20T02:41:02;17.50;;;9.87;;
16577;SDS011;8401;52.528;13.340;2022-11-20T02:43:27;17.77;;;9.67;;
16577;SDS011;8401;52.528;13.340;2022-11-20T02:45:53;14.40;;;8.83;;
16577;SDS011;8401;52.528;13.340;2022-11-20T02:48:19;15.53;;;9.27;;
16577;SDS011;8401;52.528;13.340;2022-11-20T02:50:44;15.13;;;9.37;;
16577;SDS011;8401;52.528;13.340;2022-11-20T02:53:10;16.27;;;10.10;;
16577;SDS011;8401;52.528;13.340;2022-11-20T02:55:35;14.47;;;9.57;;
16577;SDS011;8401;52.528;13.340;2022-11-20T02:58:01;17.53;;;10.00;;
16577;SDS011;8401;52.528;13.340;2022-11-20T03:00:27;13.40;;;9.30;;
16577;SDS011;8401;52.528;13.340;2022-11-20T03:02:52;14.77;;;9.37;;
16577;SDS011;8401;52.528;13.340;2022-11-20T03:05:18;15.97;;;9.13;;
16577;SDS011;8401;52.528;13.340;2022-11-20T03:07:44;14.67;;;9.50;;
16577;SDS011;8401;52.528;13.340;2022-11-20T03:10:09;16.27;;;9.57;;
16577;SDS011;8401;52.528;13.340;2022-11-20T03:12:35;17.30;;;9.83;;
16577;SDS011;8401;52.528;13.340;2022-11-20T03:15:01;16.43;;;10.20;;
16577;SDS011;8401;52.528;13.340;2022-11-20T03:17:26;15.43;;;10.37;;
16577;SDS011;8401;52.528;13.340;2022-11-20T03:19:52;15.87;;;10.20;;
16577;SDS011;8401;52.528;13.340;2022-11-20T03:22:18;15.57;;;10.37;;
16577;SDS011;8401;52.528;13.340;2022-11-20T03:24:43;15.30;;;9.50;;
16577;SDS011;8401;52.528;13.340;2022-11-20T03:27:09;14.70;;;9.80;;
16577;SDS011;8401;52.528;13.340;2022-11-20T03:29:35;20.40;;;9.90;;
16577;SDS011;8401;52.528;13.340;2022-11-20T03:32:00;15.77;;;10.30;;
16577;SDS011;8401;52.528;13.340;2022-11-20T03:34:26;15.63;;;9.70;;
16577;SDS011;8401;52.528;13.340;2022-11-20T03:36:51;13.37;;;9.13;;
16577;SDS011;8401;52.528;13.340;2022-11-20T03:39:17;15.43;;;9.13;;
16577;SDS011;8401;52.528;13.340;2022-11-20T03:41:43;15.80;;;10.10;;
16577;SDS011;8401;52.528;13.340;2022-11-20T03:44:09;15.33;;;9.77;;
16577;SDS011;8401;52.528;13.340;2022-11-20T03:46:36;14.27;;;9.73;;
16577;SDS011;8401;52.528;13.340;2022-11-20T03:49:02;16.40;;;9.63;;
16577;SDS011;8401;52.528;13.340;2022-11-20T03:51:29;15.77;;;10.13;;
16577;SDS011;8401;52.528;13.340;2022-11-20T03:53:57;17.47;;;10.13;;
16577;SDS011;8401;52.528;13.340;2022-11-20T03:56:28;14.93;;;10.13;;
16577;SDS011;8401;52.528;13.340;2022-11-20T03:58:55;16.43;;;10.03;;
16577;SDS011;8401;52.528;13.340;2022-11-20T04:01:22;15.33;;;10.00;;
16577;SDS011;8401;52.528;13.340;2022-11-20T04:03:53;15.83;;;10.67;;
16577;SDS011;8401;52.528;13.340;2022-11-20T04:06:21;16.13;;;10.37;;
16577;SDS011;8401;52.528;13.340;2022-11-20T04:08:49;21.73;;;12.23;;
16577;SDS011;8401;52.528;13.340;2022-11-20T04:11:16;17.63;;;11.20;;
16577;SDS011;8401;52.528;13.340;2022-11-20T04:13:48;16.63;;;11.00;;
16577;SDS011;8401;52.528;13.340;2022-11-20T04:16:15;16.60;;;9.23;;
16577;SDS011;8401;52.528;13.340;2022-11-20T04:18:42;17.30;;;9.77;;
16577;SDS011;8401;52.528;13.340;2022-11-20T04:21:08;16.57;;;10.43;;
16577;SDS011;8401;52.528;13.340;2022-11-20T04:23:34;15.50;;;9.90;;
16577;SDS011;8401;52.528;13.340;2022-11-20T04:26:07;16.67;;;10.40;;
16577;SDS011;8401;52.528;13.340;2022-11-20T04:28:35;14.97;;;9.70;;
16577;SDS011;8401;52.528;13.340;2022-11-20T04:31:02;17.07;;;9.97;;
16577;SDS011;8401;52.528;13.340;2022-11-20T04:33:29;16.67;;;9.50;;
16577;SDS011;8401;52.528;13.340;2022-11-20T04:35:55;16.70;;;10.57;;
16577;SDS011;8401;52.528;13.340;2022-11-20T04:38:25;16.10;;;10.77;;
16577;SDS011;8401;52.528;13.340;2022-11-20T04:40:55;13.13;;;8.77;;
16577;SDS011;8401;52.528;13.340;2022-11-20T04:43:28;15.03;;;10.23;;
16577;SDS011;8401;52.528;13.340;2022-11-20T04:45:55;13.90;;;9.53;;
16577;SDS011;8401;52.528;13.340;2022-11-20T04:48:21;17.10;;;10.00;;
16577;SDS011;8401;52.528;13.340;2022-11-20T04:50:47;18.07;;;9.83;;
16577;SDS011;8401;52.528;13.340;2022-11-20T04:53:13;14.70;;;9.40;;
16577;SDS011;8401;52.528;13.340;2022-11-20T04:55:39;15.33;;;9.50;;
16577;SDS011;8401;52.528;13.340;2022-11-20T04:58:05;15.70;;;9.67;;
16577;SDS011;8401;52.528;13.340;2022-11-20T05:00:31;19.20;;;10.03;;
16577;SDS011;8401;52.528;13.340;2022-11-20T05:02:56;15.63;;;9.60;;
16577;SDS011;8401;52.528;13.340;2022-11-20T05:05:22;14.73;;;9.43;;
16577;SDS011;8401;52.528;13.340;2022-11-20T05:07:47;15.80;;;9.57;;
16577;SDS011;8401;52.528;13.340;2022-11-20T05:10:13;19.47;;;10.43;;
16577;SDS011;8401;52.528;13.340;2022-11-20T05:12:39;15.50;;;9.57;;
16577;SDS011;8401;52.528;13.340;2022-11-20T05:15:05;15.20;;;9.50;;
16577;SDS011;8401;52.528;13.340;2022-11-20T05:17:31;16.67;;;10.63;;
16577;SDS011;8401;52.528;13.340;2022-11-20T05:19:56;17.17;;;9.93;;
16577;SDS011;8401;52.528;13.340;2022-11-20T05:22:22;15.27;;;9.40;;
16577;SDS011;8401;52.528;13.340;2022-11-20T05:24:48;14.77;;;9.83;;
16577;SDS011;8401;52.528;13.340;2022-11-20T05:27:13;17.03;;;10.83;;
16577;SDS011;8401;52.528;13.340;2022-11-20T05:29:39;15.13;;;10.00;;
16577;SDS011;8401;52.528;13.340;2022-11-20T05:32:05;17.30;;;9.83;;
16577;SDS011;8401;52.528;13.340;2022-11-20T05:34:32;16.90;;;10.73;;
16577;SDS011;8401;52.528;13.340;2022-11-20T05:36:58;15.70;;;9.93;;
16577;SDS011;8401;52.528;13.340;2022-11-20T05:39:23;17.33;;;10.40;;
16577;SDS011;8401;52.528;13.340;2022-11-20T05:41:49;16.33;;;10.67;;
16577;SDS011;8401;52.528;13.340;2022-11-20T05:44:34;15.07;;;9.33;;
16577;SDS011;8401;52.528;13.340;2022-11-20T05:47:00;16.33;;;10.10;;
16577;SDS011;8401;52.528;13.340;2022-11-20T05:49:25;14.80;;;9.50;;
16577;SDS011;8401;52.528;13.340;2022-11-20T05:51:51;14.20;;;9.43;;
16577;SDS011;8401;52.528;13.340;2022-11-20T05:54:17;15.37;;;9.20;;
16577;SDS011;8401;52.528;13.340;2022-11-20T05:56:42;14.53;;;9.40;;
16577;SDS011;8401;52.528;13.340;2022-11-20T05:59:08;14.93;;;8.90;;
16577;SDS011;8401;52.528;13.340;2022-11-20T06:01:34;16.50;;;9.83;;
16577;SDS011;8401;52.528;13.340;2022-11-20T06:04:01;14.67;;;9.43;;
16577;SDS011;8401;52.528;13.340;2022-11-20T06:06:27;14.43;;;9.23;;
16577;SDS011;8401;52.528;13.340;2022-11-20T06:08:53;17.47;;;9.90;;
16577;SDS011;8401;52.528;13.340;2022-11-20T06:11:19;15.73;;;9.80;;
16577;SDS011;8401;52.528;13.340;2022-11-20T06:13:45;14.47;;;9.83;;
16577;SDS011;8401;52.528;13.340;2022-11-20T06:16:12;17.27;;;10.00;;
16577;SDS011;8401;52.528;13.340;2022-11-20T06:18:40;14.20;;;9.07;;
16577;SDS011;8401;52.528;13.340;2022-11-20T06:23:33;15.03;;;9.77;;
16577;SDS011;8401;52.528;13.340;2022-11-20T06:26:07;15.47;;;9.70;;
16577;SDS011;8401;52.528;13.340;2022-11-20T06:28:34;16.03;;;9.93;;
16577;SDS011;8401;52.528;13.340;2022-11-20T06:31:00;16.30;;;9.90;;
16577;SDS011;8401;52.528;13.340;2022-11-20T06:33:26;14.73;;;9.47;;
16577;SDS011;8401;52.528;13.340;2022-11-20T06:35:55;15.77;;;9.57;;
16577;SDS011;8401;52.528;13.340;2022-11-20T06:38:22;15.77;;;9.83;;
16577;SDS011;8401;52.528;13.340;2022-11-20T06:40:48;15.87;;;9.73;;
16577;SDS011;8401;52.528;13.340;2022-11-20T06:43:13;16.73;;;10.30;;
16577;SDS011;8401;52.528;13.340;2022-11-20T06:45:39;17.53;;;10.07;;
16577;SDS011;8401;52.528;13.340;2022-11-20T06:48:05;15.40;;;9.50;;
16577;SDS011;8401;52.528;13.340;2022-11-20T06:50:31;15.47;;;9.93;;
16577;SDS011;8401;52.528;13.340;2022-11-20T06:52:59;17.10;;;10.23;;
16577;SDS011;8401;52.528;13.340;2022-11-20T06:55:27;13.77;;;9.40;;
16577;SDS011;8401;52.528;13.340;2022-11-20T06:57:53;14.50;;;9.37;;
16577;SDS011;8401;52.528;13.340;2022-11-20T07:00:18;15.50;;;9.53;;
16577;SDS011;8401;52.528;13.340;2022-11-20T07:02:44;13.83;;;8.80;;
16577;SDS011;8401;52.528;13.340;2022-11-20T07:05:10;17.13;;;10.40;;
16577;SDS011;8401;52.528;13.340;2022-11-20T07:07:35;16.37;;;9.80;;
16577;SDS011;8401;52.528;13.340;2022-11-20T07:10:01;15.93;;;9.53;;
16577;SDS011;8401;52.528;13.340;2022-11-20T07:12:26;14.07;;;9.20;;
16577;SDS011;8401;52.528;13.340;2022-11-20T07:14:52;16.27;;;10.10;;
16577;SDS011;8401;52.528;13.340;2022-11-20T07:17:18;16.60;;;10.13;;
16577;SDS011;8401;52.528;13.340;2022-11-20T07:19:43;16.23;;;10.27;;
16577;SDS011;8401;52.528;13.340;2022-11-20T07:22:09;16.67;;;9.70;;
16577;SDS011;8401;52.528;13.340;2022-11-20T07:24:34;17.23;;;10.70;;
16577;SDS011;8401;52.528;13.340;2022-11-20T07:27:00;15.80;;;10.40;;
16577;SDS011;8401;52.528;13.340;2022-11-20T07:29:26;15.63;;;9.70;;
16577;SDS011;8401;52.528;13.340;2022-11-20T07:31:51;16.33;;;10.27;;
16577;SDS011;8401;52.528;13.340;2022-11-20T07:34:17;16.23;;;10.13;;
16577;SDS011;8401;52.528;13.340;2022-11-20T07:36:42;16.27;;;9.87;;
16577;SDS011;8401;52.528;13.340;2022-11-20T07:39:08;16.93;;;10.20;;
16577;SDS011;8401;52.528;13.340;2022-11-20T07:41:34;17.20;;;10.73;;
16577;SDS011;8401;52.528;13.340;2022-11-20T07:43:59;15.07;;;9.93;;
16577;SDS011;8401;52.528;13.340;2022-11-20T07:46:25;18.27;;;10.00;;
16577;SDS011;8401;52.528;13.340;2022-11-20T07:48:51;19.87;;;10.77;;
16577;SDS011;8401;52.528;13.340;2022-11-20T07:51:16;17.63;;;10.10;;
16577;SDS011;8401;52.528;13.340;2022-11-20T07:53:42;15.17;;;9.83;;
16577;SDS011;8401;52.528;13.340;2022-11-20T07:56:08;15.90;;;9.87;;
16577;SDS011;8401;52.528;13.340;2022-11-20T07:58:34;17.03;;;10.37;;
16577;SDS011;8401;52.528;13.340;2022-11-20T08:01:04;13.57;;;9.37;;
16577;SDS011;8401;52.528;13.340;2022-11-20T08:03:31;15.87;;;9.50;;
16577;SDS011;8401;52.528;13.340;2022-11-20T08:06:00;16.87;;;10.13;;
16577;SDS011;8401;52.528;13.340;2022-11-20T08:08:27;16.37;;;10.40;;
16577;SDS011;8401;52.528;13.340;2022-11-20T08:10:53;17.73;;;10.87;;
16577;SDS011;8401;52.528;13.340;2022-11-20T08:13:38;19.33;;;11.20;;
16577;SDS011;8401;52.528;13.340;2022-11-20T08:16:22;17.37;;;11.63;;
16577;SDS011;8401;52.528;13.340;2022-11-20T08:18:48;20.10;;;12.17;;
16577;SDS011;8401;52.528;13.340;2022-11-20T08:21:14;20.33;;;12.17;;
16577;SDS011;8401;52.528;13.340;2022-11-20T08:23:40;17.43;;;11.47;;
16577;SDS011;8401;52.528;13.340;2022-11-20T08:26:05;19.93;;;11.80;;
16577;SDS011;8401;52.528;13.340;2022-11-20T08:28:31;20.40;;;11.30;;
16577;SDS011;8401;52.528;13.340;2022-11-20T08:30:57;17.30;;;11.03;;
16577;SDS011;8401;52.528;13.340;2022-11-20T08:33:24;19.47;;;11.57;;
16577;SDS011;8401;52.528;13.340;2022-11-20T08:35:50;15.90;;;10.07;;
16577;SDS011;8401;52.528;13.340;2022-11-20T08:38:15;19.77;;;11.77;;
16577;SDS011;8401;52.528;13.340;2022-11-20T08:40:41;19.47;;;10.90;;
16577;SDS011;8401;52.528;13.340;2022-11-20T08:43:26;17.60;;;11.47;;
16577;SDS011;8401;52.528;13.340;2022-11-20T08:45:52;18.03;;;11.47;;
16577;SDS011;8401;52.528;13.340;2022-11-20T08:48:18;20.03;;;11.33;;
16577;SDS011;8401;52.528;13.340;2022-11-20T08:50:44;19.47;;;11.10;;
16577;SDS011;8401;52.528;13.340;2022-11-20T08:53:09;18.37;;;10.87;;
16577;SDS011;8401;52.528;13.340;2022-11-20T08:55:35;20.60;;;12.10;;
16577;SDS011;8401;52.528;13.340;2022-11-20T08:58:05;21.93;;;11.53;;
16577;SDS011;8401;52.528;13.340;2022-11-20T09:00:31;18.00;;;10.93;;
16577;SDS011;8401;52.528;13.340;2022-11-20T09:02:58;18.73;;;10.83;;
16577;SDS011;8401;52.528;13.340;2022-11-20T09:05:25;17.00;;;10.57;;
16577;SDS011;8401;52.528;13.340;2022-11-20T09:07:51;17.67;;;10.57;;
16577;SDS011;8401;52.528;13.340;2022-11-20T09:10:16;17.47;;;10.87;;
16577;SDS011;8401;52.528;13.340;2022-11-20T09:12:42;21.77;;;12.63;;
16577;SDS011;8401;52.528;13.340;2022-11-20T09:15:08;19.30;;;11.00;;
16577;SDS011;8401;52.528;13.340;2022-11-20T09:17:34;19.30;;;11.33;;
16577;SDS011;8401;52.528;13.340;2022-11-20T09:19:59;19.33;;;11.90;;
16577;SDS011;8401;52.528;13.340;2022-11-20T09:22:25;16.97;;;11.20;;
16577;SDS011;8401;52.528;13.340;2022-11-20T09:24:51;19.13;;;11.20;;
16577;SDS011;8401;52.528;13.340;2022-11-20T09:27:16;19.60;;;12.17;;
16577;SDS011;8401;52.528;13.340;2022-11-20T09:29:48;18.77;;;11.27;;
16577;SDS011;8401;52.528;13.340;2022-11-20T09:32:13;17.60;;;10.87;;
16577;SDS011;8401;52.528;13.340;2022-11-20T09:34:39;20.93;;;11.67;;
16577;SDS011;8401;52.528;13.340;2022-11-20T09:37:05;15.43;;;10.00;;
16577;SDS011;8401;52.528;13.340;2022-11-20T09:39:30;19.47;;;11.67;;
16577;SDS011;8401;52.528;13.340;2022-11-20T09:42:02;15.63;;;10.33;;
16577;SDS011;8401;52.528;13.340;2022-11-20T09:44:50;17.30;;;10.90;;
16577;SDS011;8401;52.528;13.340;2022-11-20T09:50:26;15.90;;;10.20;;
16577;SDS011;8401;52.528;13.340;2022-11-20T09:55:49;19.07;;;10.30;;
16577;SDS011;8401;52.528;13.340;2022-11-20T09:58:17;16.23;;;10.90;;
16577;SDS011;8401;52.528;13.340;2022-11-20T10:00:49;19.27;;;10.97;;
16577;SDS011;8401;52.528;13.340;2022-11-20T10:03:19;15.60;;;10.43;;
16577;SDS011;8401;52.528;13.340;2022-11-20T10:06:02;14.93;;;9.73;;
16577;SDS011;8401;52.528;13.340;2022-11-20T10:08:28;15.10;;;10.17;;
16577;SDS011;8401;52.528;13.340;2022-11-20T10:11:26;17.70;;;10.20;;
16577;SDS011;8401;52.528;13.340;2022-11-20T10:17:03;15.50;;;9.83;;
16577;SDS011;8401;52.528;13.340;2022-11-20T10:30:12;16.93;;;10.60;;
16577;SDS011;8401;52.528;13.340;2022-11-20T10:32:40;18.53;;;9.83;;
16577;SDS011;8401;52.528;13.340;2022-11-20T10:35:35;17.47;;;10.47;;
16577;SDS011;8401;52.528;13.340;2022-11-20T10:38:12;18.77;;;10.53;;
16577;SDS011;8401;52.528;13.340;2022-11-20T10:40:44;16.63;;;10.30;;
16577;SDS011;8401;52.528;13.340;2022-11-20T10:43:15;15.30;;;9.63;;
16577;SDS011;8401;52.528;13.340;2022-11-20T10:45:58;16.33;;;10.20;;
16577;SDS011;8401;52.528;13.340;2022-11-20T10:48:32;14.47;;;9.87;;
16577;SDS011;8401;52.528;13.340;2022-11-20T10:56:46;12.90;;;8.77;;
16577;SDS011;8401;52.528;13.340;2022-11-20T11:01:52;15.87;;;9.83;;
16577;SDS011;8401;52.528;13.340;2022-11-20T11:04:26;13.70;;;8.87;;
16577;SDS011;8401;52.528;13.340;2022-11-20T11:06:58;15.10;;;9.57;;
16577;SDS011;8401;52.528;13.340;2022-11-20T11:09:34;16.10;;;9.83;;
16577;SDS011;8401;52.528;13.340;2022-11-20T11:12:10;13.97;;;9.23;;
16577;SDS011;8401;52.528;13.340;2022-11-20T11:14:44;13.57;;;8.93;;
16577;SDS011;8401;52.528;13.340;2022-11-20T11:17:31;13.13;;;9.13;;
16577;SDS011;8401;52.528;13.340;2022-11-20T11:22:31;15.53;;;9.43;;
16577;SDS011;8401;52.528;13.340;2022-11-20T11:24:58;13.07;;;8.67;;
16577;SDS011;8401;52.528;13.340;2022-11-20T11:27:24;12.83;;;8.87;;
16577;SDS011;8401;52.528;13.340;2022-11-20T11:29:50;13.13;;;8.50;;
16577;SDS011;8401;52.528;13.340;2022-11-20T11:32:36;13.87;;;8.90;;
16577;SDS011;8401;52.528;13.340;2022-11-20T11:35:03;14.97;;;8.50;;
16577;SDS011;8401;52.528;13.340;2022-11-20T11:37:43;14.17;;;8.57;;
16577;SDS011;8401;52.528;13.340;2022-11-20T11:40:10;11.77;;;8.10;;
16577;SDS011;8401;52.528;13.340;2022-11-20T11:42:41;13.67;;;7.67;;
16577;SDS011;8401;52.528;13.340;2022-11-20T11:45:54;14.70;;;8.60;;
16577;SDS011;8401;52.528;13.340;2022-11-20T11:48:20;10.53;;;7.57;;
16577;SDS011;8401;52.528;13.340;2022-11-20T11:50:50;11.77;;;8.23;;
16577;SDS011;8401;52.528;13.340;2022-11-20T11:53:17;13.43;;;8.70;;
16577;SDS011;8401;52.528;13.340;2022-11-20T11:55:55;14.10;;;8.87;;
16577;SDS011;8401;52.528;13.340;2022-11-20T12:01:20;11.77;;;8.17;;
16577;SDS011;8401;52.528;13.340;2022-11-20T12:06:51;11.93;;;7.53;;
16577;SDS011;8401;52.528;13.340;2022-11-20T12:09:34;13.00;;;7.70;;
16577;SDS011;8401;52.528;13.340;2022-11-20T12:12:10;13.20;;;8.43;;
16577;SDS011;8401;52.528;13.340;2022-11-20T12:14:49;12.20;;;8.20;;
16577;SDS011;8401;52.528;13.340;2022-11-20T12:17:19;14.60;;;8.43;;
16577;SDS011;8401;52.528;13.340;2022-11-20T12:19:45;12.57;;;7.90;;
16577;SDS011;8401;52.528;13.340;2022-11-20T12:22:17;15.20;;;7.70;;
16577;SDS011;8401;52.528;13.340;2022-11-20T12:25:04;11.37;;;7.30;;
16577;SDS011;8401;52.528;13.340;2022-11-20T12:27:58;12.20;;;7.73;;
16577;SDS011;8401;52.528;13.340;2022-11-20T12:30:31;11.43;;;7.30;;
16577;SDS011;8401;52.528;13.340;2022-11-20T12:33:17;12.37;;;7.43;;
16577;SDS011;8401;52.528;13.340;2022-11-20T12:36:16;11.17;;;6.77;;
16577;SDS011;8401;52.528;13.340;2022-11-20T12:58:28;8.50;;;5.97;;
16577;SDS011;8401;52.528;13.340;2022-11-20T13:00:58;10.70;;;7.03;;
16577;SDS011;8401;52.528;13.340;2022-11-20T13:03:39;11.67;;;6.83;;
16577;SDS011;8401;52.528;13.340;2022-11-20T13:06:16;10.50;;;6.93;;
16577;SDS011;8401;52.528;13.340;2022-11-20T13:08:53;9.57;;;6.83;;
16577;SDS011;8401;52.528;13.340;2022-11-20T13:11:24;9.50;;;6.50;;
16577;SDS011;8401;52.528;13.340;2022-11-20T13:19:30;9.90;;;6.90;;
16577;SDS011;8401;52.528;13.340;2022-11-20T13:21:56;11.97;;;7.63;;
16577;SDS011;8401;52.528;13.340;2022-11-20T13:24:26;12.13;;;7.27;;
16577;SDS011;8401;52.528;13.340;2022-11-20T13:29:33;14.03;;;7.40;;
16577;SDS011;8401;52.528;13.340;2022-11-20T13:32:02;11.87;;;7.10;;
16577;SDS011;8401;52.528;13.340;2022-11-20T13:34:31;11.60;;;6.97;;
16577;SDS011;8401;52.528;13.340;2022-11-20T13:36:57;8.37;;;6.20;;
16577;SDS011;8401;52.528;13.340;2022-11-20T13:39:35;10.33;;;6.73;;
16577;SDS011;8401;52.528;13.340;2022-11-20T13:42:54;11.63;;;7.50;;
16577;SDS011;8401;52.528;13.340;2022-11-20T13:45:00;10.37;;;6.47;;
16577;SDS011;8401;52.528;13.340;2022-11-20T13:47:33;11.23;;;6.77;;
16577;SDS011;8401;52.528;13.340;2022-11-20T13:50:02;11.83;;;7.70;;
16577;SDS011;8401;52.528;13.340;2022-11-20T14:03:59;10.40;;;6.67;;
16577;SDS011;8401;52.528;13.340;2022-11-20T14:06:32;13.67;;;6.70;;
16577;SDS011;8401;52.528;13.340;2022-11-20T14:09:04;13.43;;;6.60;;
16577;SDS011;8401;52.528;13.340;2022-11-20T14:11:30;12.50;;;8.67;;
16577;SDS011;8401;52.528;13.340;2022-11-20T14:14:04;12.87;;;8.17;;
16577;SDS011;8401;52.528;13.340;2022-11-20T14:16:40;11.23;;;7.40;;
16577;SDS011;8401;52.528;13.340;2022-11-20T14:21:49;13.83;;;8.50;;
16577;SDS011;8401;52.528;13.340;2022-11-20T14:24:31;10.53;;;6.70;;
16577;SDS011;8401;52.528;13.340;2022-11-20T14:26:57;12.03;;;7.37;;
16577;SDS011;8401;52.528;13.340;2022-11-20T14:29:36;13.67;;;8.80;;
16577;SDS011;8401;52.528;13.340;2022-11-20T14:32:03;10.33;;;6.60;;
16577;SDS011;8401;52.528;13.340;2022-11-20T14:34:30;12.87;;;7.40;;
16577;SDS011;8401;52.528;13.340;2022-11-20T14:37:01;13.27;;;8.00;;
16577;SDS011;8401;52.528;13.340;2022-11-20T14:39:30;12.50;;;7.83;;
16577;SDS011;8401;52.528;13.340;2022-11-20T14:41:58;12.47;;;7.07;;
16577;SDS011;8401;52.528;13.340;2022-11-20T14:44:26;10.97;;;7.07;;
16577;SDS011;8401;52.528;13.340;2022-11-20T14:47:02;12.60;;;8.10;;
16577;SDS011;8401;52.528;13.340;2022-11-20T14:49:29;11.63;;;7.60;;
16577;SDS011;8401;52.528;13.340;2022-11-20T14:52:09;11.03;;;7.47;;
16577;SDS011;8401;52.528;13.340;2022-11-20T14:54:47;12.00;;;7.90;;
16577;SDS011;8401;52.528;13.340;2022-11-20T15:02:43;12.97;;;7.77;;
16577;SDS011;8401;52.528;13.340;2022-11-20T15:05:10;12.17;;;8.47;;
16577;SDS011;8401;52.528;13.340;2022-11-20T15:07:38;16.30;;;7.93;;
16577;SDS011;8401;52.528;13.340;2022-11-20T15:10:11;11.07;;;7.13;;
16577;SDS011;8401;52.528;13.340;2022-11-20T15:12:56;12.57;;;7.63;;
16577;SDS011;8401;52.528;13.340;2022-11-20T15:15:35;12.97;;;9.13;;
16577;SDS011;8401;52.528;13.340;2022-11-20T15:18:10;13.50;;;8.10;;
16577;SDS011;8401;52.528;13.340;2022-11-20T15:20:41;11.77;;;7.67;;
16577;SDS011;8401;52.528;13.340;2022-11-20T15:23:11;12.47;;;8.27;;
16577;SDS011;8401;52.528;13.340;2022-11-20T15:25:38;12.30;;;7.70;;
16577;SDS011;8401;52.528;13.340;2022-11-20T15:28:07;13.03;;;7.47;;
16577;SDS011;8401;52.528;13.340;2022-11-20T15:30:46;11.43;;;7.90;;
16577;SDS011;8401;52.528;13.340;2022-11-20T15:33:13;11.33;;;7.23;;
16577;SDS011;8401;52.528;13.340;2022-11-20T15:35:39;12.00;;;7.20;;
16577;SDS011;8401;52.528;13.340;2022-11-20T15:38:05;13.97;;;8.77;;
16577;SDS011;8401;52.528;13.340;2022-11-20T15:40:31;10.67;;;7.70;;
16577;SDS011;8401;52.528;13.340;2022-11-20T15:42:56;13.53;;;7.73;;
16577;SDS011;8401;52.528;13.340;2022-11-20T15:45:29;13.63;;;8.83;;
16577;SDS011;8401;52.528;13.340;2022-11-20T15:47:57;14.30;;;9.20;;
16577;SDS011;8401;52.528;13.340;2022-11-20T15:50:25;13.00;;;8.17;;
16577;SDS011;8401;52.528;13.340;2022-11-20T15:52:54;12.03;;;8.20;;
16577;SDS011;8401;52.528;13.340;2022-11-20T15:55:19;13.57;;;8.27;;
16577;SDS011;8401;52.528;13.340;2022-11-20T15:57:45;13.33;;;8.10;;
16577;SDS011;8401;52.528;13.340;2022-11-20T16:00:11;11.73;;;7.70;;
16577;SDS011;8401;52.528;13.340;2022-11-20T16:02:37;13.33;;;8.07;;
16577;SDS011;8401;52.528;13.340;2022-11-20T16:05:03;12.03;;;8.07;;
16577;SDS011;8401;52.528;13.340;2022-11-20T16:07:29;14.73;;;7.53;;
16577;SDS011;8401;52.528;13.340;2022-11-20T16:09:54;13.93;;;7.10;;
16577;SDS011;8401;52.528;13.340;2022-11-20T16:12:21;11.77;;;7.70;;
16577;SDS011;8401;52.528;13.340;2022-11-20T16:15:07;12.07;;;7.40;;
16577;SDS011;8401;52.528;13.340;2022-11-20T16:17:52;17.23;;;8.40;;